Starkville, Colorado
Current Conditions -  °F | °C
As of 9:54 PM on Wednesday 26 Nov 2014 (Local Time) from KTAD Reporting Station
Clear Clear  
Wind Chill: 24°   Ceiling: Unl
Heat Index: 29°   Visibility: 10mi
Dew Point: 25°   Wind: 5mph
Humidity: 85%   Direction: NA
Pressure: 30.31"   Gusts: NA
Location:  37.12°N, 104.52°W
Report Text: KTAD 270454Z AUTO VRB04KT 10SM CLR M02/M04 A3031 RMK AO2 SLP279 T10171039
Loading
Personal Weather Stations






























Interactive Weather Map New forecast layout! Learn more

10-Day Weather Forecast

Advertisements
Track Severe Weather on mobile